sensor_id;sensor_type;location;lat;lon;timestamp;P1;durP1;ratioP1;P2;durP2;ratioP2
64915;SDS011;51427;-27.442;153.014;2023-03-12T00:00:04;1.35;;;1.25;;
64915;SDS011;51427;-27.442;153.014;2023-03-12T00:02:35;1.25;;;1.13;;
64915;SDS011;51427;-27.442;153.014;2023-03-12T00:05:03;1.63;;;1.05;;
64915;SDS011;51427;-27.442;153.014;2023-03-12T00:07:31;1.58;;;1.17;;
64915;SDS011;51427;-27.442;153.014;2023-03-12T00:10:02;3.30;;;1.75;;
64915;SDS011;51427;-27.442;153.014;2023-03-12T00:12:29;1.30;;;1.20;;
64915;SDS011;51427;-27.442;153.014;2023-03-12T00:14:56;1.50;;;1.10;;
64915;SDS011;51427;-27.442;153.014;2023-03-12T00:17:24;1.73;;;1.23;;
64915;SDS011;51427;-27.442;153.014;2023-03-12T00:19:51;1.10;;;1.00;;
64915;SDS011;51427;-27.442;153.014;2023-03-12T00:22:19;2.33;;;1.35;;
64915;SDS011;51427;-27.442;153.014;2023-03-12T00:24:50;1.77;;;1.40;;
64915;SDS011;51427;-27.442;153.014;2023-03-12T00:27:18;3.22;;;1.20;;
64915;SDS011;51427;-27.442;153.014;2023-03-12T00:29:46;2.30;;;1.30;;
64915;SDS011;51427;-27.442;153.014;2023-03-12T00:32:13;7.63;;;3.88;;
64915;SDS011;51427;-27.442;153.014;2023-03-12T00:34:41;2.47;;;1.65;;
64915;SDS011;51427;-27.442;153.014;2023-03-12T00:37:08;3.15;;;1.60;;
64915;SDS011;51427;-27.442;153.014;2023-03-12T00:39:36;1.60;;;1.50;;
64915;SDS011;51427;-27.442;153.014;2023-03-12T00:42:03;3.00;;;1.88;;
64915;SDS011;51427;-27.442;153.014;2023-03-12T00:44:30;2.35;;;1.40;;
64915;SDS011;51427;-27.442;153.014;2023-03-12T00:46:58;1.58;;;1.40;;
64915;SDS011;51427;-27.442;153.014;2023-03-12T00:49:25;1.30;;;1.20;;
64915;SDS011;51427;-27.442;153.014;2023-03-12T00:51:52;3.30;;;1.58;;
64915;SDS011;51427;-27.442;153.014;2023-03-12T00:54:20;2.03;;;1.33;;
64915;SDS011;51427;-27.442;153.014;2023-03-12T00:56:47;1.90;;;1.35;;
64915;SDS011;51427;-27.442;153.014;2023-03-12T00:59:15;4.63;;;2.55;;
64915;SDS011;51427;-27.442;153.014;2023-03-12T01:01:42;7.03;;;3.20;;
64915;SDS011;51427;-27.442;153.014;2023-03-12T01:04:10;4.97;;;3.28;;
64915;SDS011;51427;-27.442;153.014;2023-03-12T01:06:37;1.73;;;1.27;;
64915;SDS011;51427;-27.442;153.014;2023-03-12T01:09:06;1.85;;;1.65;;
64915;SDS011;51427;-27.442;153.014;2023-03-12T01:11:34;2.03;;;1.75;;
64915;SDS011;51427;-27.442;153.014;2023-03-12T01:14:03;4.25;;;1.95;;
64915;SDS011;51427;-27.442;153.014;2023-03-12T01:16:31;2.50;;;1.58;;
64915;SDS011;51427;-27.442;153.014;2023-03-12T01:18:59;2.47;;;1.23;;
64915;SDS011;51427;-27.442;153.014;2023-03-12T01:21:28;6.80;;;2.40;;
64915;SDS011;51427;-27.442;153.014;2023-03-12T01:23:56;1.67;;;1.52;;
64915;SDS011;51427;-27.442;153.014;2023-03-12T01:26:23;1.75;;;1.48;;
64915;SDS011;51427;-27.442;153.014;2023-03-12T01:28:51;2.47;;;1.48;;
64915;SDS011;51427;-27.442;153.014;2023-03-12T01:31:18;4.68;;;1.75;;
64915;SDS011;51427;-27.442;153.014;2023-03-12T01:33:49;2.00;;;1.25;;
64915;SDS011;51427;-27.442;153.014;2023-03-12T01:36:21;2.03;;;1.70;;
64915;SDS011;51427;-27.442;153.014;2023-03-12T01:38:50;1.50;;;1.40;;
64915;SDS011;51427;-27.442;153.014;2023-03-12T01:41:19;2.78;;;1.58;;
64915;SDS011;51427;-27.442;153.014;2023-03-12T01:43:48;1.73;;;1.60;;
64915;SDS011;51427;-27.442;153.014;2023-03-12T01:46:20;1.80;;;1.70;;
64915;SDS011;51427;-27.442;153.014;2023-03-12T01:49:13;1.83;;;1.52;;
64915;SDS011;51427;-27.442;153.014;2023-03-12T01:51:46;1.85;;;1.63;;
64915;SDS011;51427;-27.442;153.014;2023-03-12T01:54:28;1.95;;;1.83;;
64915;SDS011;51427;-27.442;153.014;2023-03-12T01:56:56;4.00;;;2.20;;
64915;SDS011;51427;-27.442;153.014;2023-03-12T01:59:46;2.83;;;1.73;;
64915;SDS011;51427;-27.442;153.014;2023-03-12T02:02:14;2.55;;;1.67;;
64915;SDS011;51427;-27.442;153.014;2023-03-12T02:04:43;2.03;;;1.92;;
64915;SDS011;51427;-27.442;153.014;2023-03-12T02:07:13;1.77;;;1.60;;
64915;SDS011;51427;-27.442;153.014;2023-03-12T02:09:42;1.95;;;1.73;;
64915;SDS011;51427;-27.442;153.014;2023-03-12T02:12:14;3.05;;;1.60;;
64915;SDS011;51427;-27.442;153.014;2023-03-12T02:14:42;2.17;;;1.98;;
64915;SDS011;51427;-27.442;153.014;2023-03-12T02:17:10;3.88;;;2.20;;
64915;SDS011;51427;-27.442;153.014;2023-03-12T02:19:49;2.80;;;2.25;;
64915;SDS011;51427;-27.442;153.014;2023-03-12T02:22:24;2.25;;;2.03;;
64915;SDS011;51427;-27.442;153.014;2023-03-12T02:27:32;1.70;;;1.60;;
64915;SDS011;51427;-27.442;153.014;2023-03-12T02:30:02;3.35;;;2.13;;
64915;SDS011;51427;-27.442;153.014;2023-03-12T02:32:32;2.28;;;2.05;;
64915;SDS011;51427;-27.442;153.014;2023-03-12T02:35:02;2.78;;;2.22;;
64915;SDS011;51427;-27.442;153.014;2023-03-12T02:37:30;3.03;;;1.60;;
64915;SDS011;51427;-27.442;153.014;2023-03-12T02:42:36;2.40;;;1.80;;
64915;SDS011;51427;-27.442;153.014;2023-03-12T02:45:03;2.50;;;1.75;;
64915;SDS011;51427;-27.442;153.014;2023-03-12T02:47:31;2.60;;;2.10;;
64915;SDS011;51427;-27.442;153.014;2023-03-12T02:49:58;2.17;;;1.85;;
64915;SDS011;51427;-27.442;153.014;2023-03-12T02:52:25;2.03;;;1.85;;
64915;SDS011;51427;-27.442;153.014;2023-03-12T02:54:55;3.00;;;1.65;;
64915;SDS011;51427;-27.442;153.014;2023-03-12T02:57:22;4.50;;;2.25;;
64915;SDS011;51427;-27.442;153.014;2023-03-12T02:59:53;3.10;;;1.73;;
64915;SDS011;51427;-27.442;153.014;2023-03-12T03:02:20;3.05;;;1.77;;
64915;SDS011;51427;-27.442;153.014;2023-03-12T03:04:47;4.80;;;2.42;;
64915;SDS011;51427;-27.442;153.014;2023-03-12T03:07:14;3.95;;;1.92;;
64915;SDS011;51427;-27.442;153.014;2023-03-12T03:09:41;2.75;;;1.98;;
64915;SDS011;51427;-27.442;153.014;2023-03-12T03:12:09;2.83;;;2.05;;
64915;SDS011;51427;-27.442;153.014;2023-03-12T03:14:36;2.58;;;2.22;;
64915;SDS011;51427;-27.442;153.014;2023-03-12T03:17:03;4.20;;;2.00;;
64915;SDS011;51427;-27.442;153.014;2023-03-12T03:19:30;4.32;;;2.00;;
64915;SDS011;51427;-27.442;153.014;2023-03-12T03:21:58;3.55;;;2.10;;
64915;SDS011;51427;-27.442;153.014;2023-03-12T03:24:25;3.13;;;2.20;;
64915;SDS011;51427;-27.442;153.014;2023-03-12T03:26:52;9.02;;;2.33;;
64915;SDS011;51427;-27.442;153.014;2023-03-12T03:29:19;3.03;;;2.03;;
64915;SDS011;51427;-27.442;153.014;2023-03-12T03:31:47;1.83;;;1.67;;
64915;SDS011;51427;-27.442;153.014;2023-03-12T03:34:14;2.78;;;1.83;;
64915;SDS011;51427;-27.442;153.014;2023-03-12T03:36:41;2.47;;;1.88;;
64915;SDS011;51427;-27.442;153.014;2023-03-12T03:39:08;3.97;;;2.42;;
64915;SDS011;51427;-27.442;153.014;2023-03-12T03:41:35;3.63;;;2.20;;
64915;SDS011;51427;-27.442;153.014;2023-03-12T03:44:03;3.30;;;2.20;;
64915;SDS011;51427;-27.442;153.014;2023-03-12T03:46:32;3.72;;;2.28;;
64915;SDS011;51427;-27.442;153.014;2023-03-12T03:49:02;2.90;;;2.00;;
64915;SDS011;51427;-27.442;153.014;2023-03-12T03:51:30;3.63;;;2.25;;
64915;SDS011;51427;-27.442;153.014;2023-03-12T03:53:58;2.92;;;2.10;;
64915;SDS011;51427;-27.442;153.014;2023-03-12T03:56:28;2.90;;;2.20;;
64915;SDS011;51427;-27.442;153.014;2023-03-12T03:58:55;2.85;;;2.03;;
64915;SDS011;51427;-27.442;153.014;2023-03-12T04:01:22;4.18;;;2.25;;
64915;SDS011;51427;-27.442;153.014;2023-03-12T04:03:50;3.33;;;2.00;;
64915;SDS011;51427;-27.442;153.014;2023-03-12T04:06:17;4.32;;;2.63;;
64915;SDS011;51427;-27.442;153.014;2023-03-12T04:08:44;3.50;;;2.65;;
64915;SDS011;51427;-27.442;153.014;2023-03-12T04:11:13;3.28;;;2.35;;
64915;SDS011;51427;-27.442;153.014;2023-03-12T04:13:41;5.32;;;2.63;;
64915;SDS011;51427;-27.442;153.014;2023-03-12T04:16:09;4.47;;;2.30;;
64915;SDS011;51427;-27.442;153.014;2023-03-12T04:18:37;4.90;;;2.70;;
64915;SDS011;51427;-27.442;153.014;2023-03-12T04:21:05;6.63;;;3.20;;
64915;SDS011;51427;-27.442;153.014;2023-03-12T04:23:34;8.43;;;3.55;;
64915;SDS011;51427;-27.442;153.014;2023-03-12T04:26:02;8.25;;;3.30;;
64915;SDS011;51427;-27.442;153.014;2023-03-12T04:28:30;10.98;;;3.92;;
64915;SDS011;51427;-27.442;153.014;2023-03-12T04:30:58;9.15;;;3.53;;
64915;SDS011;51427;-27.442;153.014;2023-03-12T04:33:28;6.82;;;3.35;;
64915;SDS011;51427;-27.442;153.014;2023-03-12T04:35:57;8.48;;;3.40;;
64915;SDS011;51427;-27.442;153.014;2023-03-12T04:38:25;9.10;;;3.50;;
64915;SDS011;51427;-27.442;153.014;2023-03-12T04:40:59;4.05;;;2.80;;
64915;SDS011;51427;-27.442;153.014;2023-03-12T04:43:32;6.35;;;2.17;;
64915;SDS011;51427;-27.442;153.014;2023-03-12T04:46:00;7.00;;;2.13;;
64915;SDS011;51427;-27.442;153.014;2023-03-12T04:48:28;6.60;;;2.08;;
64915;SDS011;51427;-27.442;153.014;2023-03-12T04:50:55;8.02;;;2.30;;
64915;SDS011;51427;-27.442;153.014;2023-03-12T04:53:22;2.30;;;1.40;;
64915;SDS011;51427;-27.442;153.014;2023-03-12T04:55:50;4.70;;;1.80;;
64915;SDS011;51427;-27.442;153.014;2023-03-12T04:58:18;7.47;;;2.38;;
64915;SDS011;51427;-27.442;153.014;2023-03-12T05:00:46;6.68;;;1.88;;
64915;SDS011;51427;-27.442;153.014;2023-03-12T05:03:14;4.43;;;1.42;;
64915;SDS011;51427;-27.442;153.014;2023-03-12T05:05:42;5.50;;;1.98;;
64915;SDS011;51427;-27.442;153.014;2023-03-12T05:08:09;3.13;;;2.10;;
64915;SDS011;51427;-27.442;153.014;2023-03-12T05:10:36;5.30;;;2.10;;
64915;SDS011;51427;-27.442;153.014;2023-03-12T05:13:04;4.95;;;1.90;;
64915;SDS011;51427;-27.442;153.014;2023-03-12T05:15:42;3.20;;;1.50;;
64915;SDS011;51427;-27.442;153.014;2023-03-12T05:18:10;4.90;;;1.58;;
64915;SDS011;51427;-27.442;153.014;2023-03-12T05:20:37;3.08;;;1.30;;
64915;SDS011;51427;-27.442;153.014;2023-03-12T05:23:04;3.85;;;1.40;;
64915;SDS011;51427;-27.442;153.014;2023-03-12T05:25:31;2.45;;;1.17;;
64915;SDS011;51427;-27.442;153.014;2023-03-12T05:28:00;2.85;;;1.27;;
64915;SDS011;51427;-27.442;153.014;2023-03-12T05:30:28;4.95;;;1.63;;
64915;SDS011;51427;-27.442;153.014;2023-03-12T05:32:55;3.88;;;1.55;;
64915;SDS011;51427;-27.442;153.014;2023-03-12T05:35:23;4.72;;;1.42;;
64915;SDS011;51427;-27.442;153.014;2023-03-12T05:37:51;7.35;;;1.40;;
64915;SDS011;51427;-27.442;153.014;2023-03-12T05:40:18;2.55;;;1.30;;
64915;SDS011;51427;-27.442;153.014;2023-03-12T05:42:46;4.07;;;1.73;;
64915;SDS011;51427;-27.442;153.014;2023-03-12T05:45:13;3.97;;;1.50;;
64915;SDS011;51427;-27.442;153.014;2023-03-12T05:47:41;3.80;;;1.45;;
64915;SDS011;51427;-27.442;153.014;2023-03-12T05:50:12;3.13;;;1.58;;
64915;SDS011;51427;-27.442;153.014;2023-03-12T05:52:41;3.00;;;1.17;;
64915;SDS011;51427;-27.442;153.014;2023-03-12T05:55:09;4.05;;;0.75;;
64915;SDS011;51427;-27.442;153.014;2023-03-12T05:57:37;3.65;;;1.10;;
64915;SDS011;51427;-27.442;153.014;2023-03-12T06:00:04;2.15;;;1.00;;
64915;SDS011;51427;-27.442;153.014;2023-03-12T06:02:33;2.15;;;1.00;;
64915;SDS011;51427;-27.442;153.014;2023-03-12T06:05:00;1.73;;;0.95;;
64915;SDS011;51427;-27.442;153.014;2023-03-12T06:07:28;2.75;;;0.90;;
64915;SDS011;51427;-27.442;153.014;2023-03-12T06:09:56;2.78;;;1.00;;
64915;SDS011;51427;-27.442;153.014;2023-03-12T06:12:24;1.52;;;1.02;;
64915;SDS011;51427;-27.442;153.014;2023-03-12T06:14:56;5.05;;;1.40;;
64915;SDS011;51427;-27.442;153.014;2023-03-12T06:17:24;2.97;;;1.20;;
64915;SDS011;51427;-27.442;153.014;2023-03-12T06:19:52;5.47;;;1.50;;
64915;SDS011;51427;-27.442;153.014;2023-03-12T06:22:19;4.10;;;1.70;;
64915;SDS011;51427;-27.442;153.014;2023-03-12T06:24:47;4.55;;;1.95;;
64915;SDS011;51427;-27.442;153.014;2023-03-12T06:27:16;4.57;;;1.90;;
64915;SDS011;51427;-27.442;153.014;2023-03-12T06:29:47;4.10;;;1.85;;
64915;SDS011;51427;-27.442;153.014;2023-03-12T06:32:14;3.42;;;1.50;;
64915;SDS011;51427;-27.442;153.014;2023-03-12T06:34:43;6.70;;;1.50;;
64915;SDS011;51427;-27.442;153.014;2023-03-12T06:37:11;5.18;;;1.92;;
64915;SDS011;51427;-27.442;153.014;2023-03-12T06:39:38;3.95;;;1.83;;
64915;SDS011;51427;-27.442;153.014;2023-03-12T06:42:06;3.17;;;1.40;;
64915;SDS011;51427;-27.442;153.014;2023-03-12T06:44:34;4.28;;;1.90;;
64915;SDS011;51427;-27.442;153.014;2023-03-12T06:47:02;2.92;;;1.70;;
64915;SDS011;51427;-27.442;153.014;2023-03-12T06:49:29;4.47;;;1.60;;
64915;SDS011;51427;-27.442;153.014;2023-03-12T06:51:58;3.88;;;1.77;;
64915;SDS011;51427;-27.442;153.014;2023-03-12T06:54:25;4.57;;;1.83;;
64915;SDS011;51427;-27.442;153.014;2023-03-12T06:56:53;3.33;;;1.80;;
64915;SDS011;51427;-27.442;153.014;2023-03-12T06:59:21;3.83;;;2.10;;
64915;SDS011;51427;-27.442;153.014;2023-03-12T07:01:49;2.10;;;1.48;;
64915;SDS011;51427;-27.442;153.014;2023-03-12T07:04:16;5.53;;;2.30;;
64915;SDS011;51427;-27.442;153.014;2023-03-12T07:06:44;4.97;;;2.28;;
64915;SDS011;51427;-27.442;153.014;2023-03-12T07:09:16;5.07;;;2.25;;
64915;SDS011;51427;-27.442;153.014;2023-03-12T07:11:45;6.32;;;2.10;;
64915;SDS011;51427;-27.442;153.014;2023-03-12T07:14:12;5.25;;;2.30;;
64915;SDS011;51427;-27.442;153.014;2023-03-12T07:16:40;4.63;;;1.98;;
64915;SDS011;51427;-27.442;153.014;2023-03-12T07:19:08;9.00;;;3.28;;
64915;SDS011;51427;-27.442;153.014;2023-03-12T07:21:35;4.72;;;2.08;;
64915;SDS011;51427;-27.442;153.014;2023-03-12T07:24:03;4.43;;;1.85;;
64915;SDS011;51427;-27.442;153.014;2023-03-12T07:26:33;4.18;;;2.30;;
64915;SDS011;51427;-27.442;153.014;2023-03-12T07:29:01;3.50;;;2.13;;
64915;SDS011;51427;-27.442;153.014;2023-03-12T07:31:30;6.65;;;1.90;;
64915;SDS011;51427;-27.442;153.014;2023-03-12T07:33:57;3.22;;;2.10;;
64915;SDS011;51427;-27.442;153.014;2023-03-12T07:36:27;3.05;;;1.98;;
64915;SDS011;51427;-27.442;153.014;2023-03-12T07:38:55;2.97;;;1.85;;
64915;SDS011;51427;-27.442;153.014;2023-03-12T07:41:23;3.50;;;1.80;;
64915;SDS011;51427;-27.442;153.014;2023-03-12T07:43:51;4.25;;;2.20;;
64915;SDS011;51427;-27.442;153.014;2023-03-12T07:46:18;6.47;;;2.28;;
64915;SDS011;51427;-27.442;153.014;2023-03-12T07:48:46;5.50;;;2.10;;
64915;SDS011;51427;-27.442;153.014;2023-03-12T07:51:13;5.68;;;2.22;;
64915;SDS011;51427;-27.442;153.014;2023-03-12T07:53:44;4.00;;;1.83;;
64915;SDS011;51427;-27.442;153.014;2023-03-12T07:56:12;3.95;;;1.90;;
64915;SDS011;51427;-27.442;153.014;2023-03-12T07:58:39;4.13;;;2.00;;
64915;SDS011;51427;-27.442;153.014;2023-03-12T08:01:07;4.43;;;2.05;;
64915;SDS011;51427;-27.442;153.014;2023-03-12T08:03:35;5.03;;;2.13;;
64915;SDS011;51427;-27.442;153.014;2023-03-12T08:06:03;4.72;;;2.17;;
64915;SDS011;51427;-27.442;153.014;2023-03-12T08:08:32;4.55;;;2.10;;
64915;SDS011;51427;-27.442;153.014;2023-03-12T08:11:03;6.05;;;2.40;;
64915;SDS011;51427;-27.442;153.014;2023-03-12T08:13:31;2.92;;;2.10;;
64915;SDS011;51427;-27.442;153.014;2023-03-12T08:15:59;2.70;;;1.73;;
64915;SDS011;51427;-27.442;153.014;2023-03-12T08:18:27;5.03;;;2.00;;
64915;SDS011;51427;-27.442;153.014;2023-03-12T08:20:55;3.03;;;1.77;;
64915;SDS011;51427;-27.442;153.014;2023-03-12T08:23:23;4.93;;;1.88;;
64915;SDS011;51427;-27.442;153.014;2023-03-12T08:25:51;4.13;;;1.60;;
64915;SDS011;51427;-27.442;153.014;2023-03-12T08:28:23;3.88;;;1.60;;
64915;SDS011;51427;-27.442;153.014;2023-03-12T08:30:52;5.00;;;2.38;;
64915;SDS011;51427;-27.442;153.014;2023-03-12T08:33:21;4.55;;;2.17;;
64915;SDS011;51427;-27.442;153.014;2023-03-12T08:35:49;4.53;;;2.88;;
64915;SDS011;51427;-27.442;153.014;2023-03-12T08:38:16;5.90;;;3.33;;
64915;SDS011;51427;-27.442;153.014;2023-03-12T08:40:45;4.97;;;2.88;;
64915;SDS011;51427;-27.442;153.014;2023-03-12T08:43:15;6.22;;;3.05;;
64915;SDS011;51427;-27.442;153.014;2023-03-12T08:45:51;5.80;;;2.42;;
64915;SDS011;51427;-27.442;153.014;2023-03-12T08:48:20;5.25;;;2.25;;
64915;SDS011;51427;-27.442;153.014;2023-03-12T08:50:47;3.80;;;2.17;;
64915;SDS011;51427;-27.442;153.014;2023-03-12T08:53:15;5.45;;;2.42;;
64915;SDS011;51427;-27.442;153.014;2023-03-12T08:55:43;2.72;;;1.70;;
64915;SDS011;51427;-27.442;153.014;2023-03-12T08:58:11;2.55;;;1.85;;
64915;SDS011;51427;-27.442;153.014;2023-03-12T09:00:39;4.45;;;2.28;;
64915;SDS011;51427;-27.442;153.014;2023-03-12T09:03:07;4.60;;;2.00;;
64915;SDS011;51427;-27.442;153.014;2023-03-12T09:05:38;4.82;;;1.90;;
64915;SDS011;51427;-27.442;153.014;2023-03-12T09:08:07;10.07;;;2.40;;
64915;SDS011;51427;-27.442;153.014;2023-03-12T09:10:35;6.88;;;2.20;;
64915;SDS011;51427;-27.442;153.014;2023-03-12T09:13:07;6.18;;;4.07;;
64915;SDS011;51427;-27.442;153.014;2023-03-12T09:15:35;9.23;;;3.47;;
64915;SDS011;51427;-27.442;153.014;2023-03-12T09:18:02;6.15;;;2.75;;
64915;SDS011;51427;-27.442;153.014;2023-03-12T09:20:30;3.22;;;2.60;;
64915;SDS011;51427;-27.442;153.014;2023-03-12T09:22:58;6.20;;;2.45;;
64915;SDS011;51427;-27.442;153.014;2023-03-12T09:25:26;5.05;;;2.50;;
64915;SDS011;51427;-27.442;153.014;2023-03-12T09:27:53;6.00;;;3.70;;
64915;SDS011;51427;-27.442;153.014;2023-03-12T09:30:21;4.93;;;2.90;;
64915;SDS011;51427;-27.442;153.014;2023-03-12T09:32:51;4.43;;;2.13;;
64915;SDS011;51427;-27.442;153.014;2023-03-12T09:35:19;5.63;;;2.53;;
64915;SDS011;51427;-27.442;153.014;2023-03-12T09:37:49;3.15;;;2.20;;
64915;SDS011;51427;-27.442;153.014;2023-03-12T09:40:19;3.92;;;2.28;;
64915;SDS011;51427;-27.442;153.014;2023-03-12T09:42:50;5.57;;;2.83;;
64915;SDS011;51427;-27.442;153.014;2023-03-12T09:45:37;4.75;;;2.55;;
64915;SDS011;51427;-27.442;153.014;2023-03-12T09:48:54;5.60;;;3.60;;
64915;SDS011;51427;-27.442;153.014;2023-03-12T09:51:17;5.30;;;3.55;;
64915;SDS011;51427;-27.442;153.014;2023-03-12T09:53:53;6.55;;;2.95;;
64915;SDS011;51427;-27.442;153.014;2023-03-12T09:56:24;5.88;;;3.10;;
64915;SDS011;51427;-27.442;153.014;2023-03-12T09:58:52;6.90;;;2.90;;
64915;SDS011;51427;-27.442;153.014;2023-03-12T10:09:52;5.78;;;3.05;;
64915;SDS011;51427;-27.442;153.014;2023-03-12T10:18:20;6.88;;;2.83;;
64915;SDS011;51427;-27.442;153.014;2023-03-12T10:28:58;4.80;;;3.00;;
64915;SDS011;51427;-27.442;153.014;2023-03-12T10:31:47;8.90;;;4.13;;
64915;SDS011;51427;-27.442;153.014;2023-03-12T10:39:53;5.93;;;3.05;;
64915;SDS011;51427;-27.442;153.014;2023-03-12T10:42:22;6.65;;;3.55;;
64915;SDS011;51427;-27.442;153.014;2023-03-12T10:45:12;7.03;;;4.10;;
64915;SDS011;51427;-27.442;153.014;2023-03-12T10:50:29;3.33;;;2.33;;
64915;SDS011;51427;-27.442;153.014;2023-03-12T10:56:03;4.78;;;2.55;;
64915;SDS011;51427;-27.442;153.014;2023-03-12T10:58:49;3.88;;;2.10;;
64915;SDS011;51427;-27.442;153.014;2023-03-12T11:04:30;7.32;;;3.40;;
64915;SDS011;51427;-27.442;153.014;2023-03-12T11:07:52;12.57;;;5.00;;
64915;SDS011;51427;-27.442;153.014;2023-03-12T11:12:35;10.43;;;4.13;;
64915;SDS011;51427;-27.442;153.014;2023-03-12T11:18:40;6.55;;;2.83;;
64915;SDS011;51427;-27.442;153.014;2023-03-12T11:23:35;10.18;;;3.28;;
64915;SDS011;51427;-27.442;153.014;2023-03-12T11:26:19;10.38;;;2.80;;
64915;SDS011;51427;-27.442;153.014;2023-03-12T11:28:52;7.70;;;3.38;;
64915;SDS011;51427;-27.442;153.014;2023-03-12T11:31:28;6.78;;;3.10;;
64915;SDS011;51427;-27.442;153.014;2023-03-12T11:34:05;8.27;;;3.40;;
64915;SDS011;51427;-27.442;153.014;2023-03-12T11:37:02;10.27;;;3.40;;
64915;SDS011;51427;-27.442;153.014;2023-03-12T11:50:42;6.32;;;2.83;;
64915;SDS011;51427;-27.442;153.014;2023-03-12T12:05:34;8.32;;;3.30;;
64915;SDS011;51427;-27.442;153.014;2023-03-12T12:10:57;5.22;;;2.72;;
64915;SDS011;51427;-27.442;153.014;2023-03-12T12:27:43;7.97;;;3.53;;
64915;SDS011;51427;-27.442;153.014;2023-03-12T12:36:03;9.03;;;3.67;;
64915;SDS011;51427;-27.442;153.014;2023-03-12T12:38:36;4.43;;;2.55;;
64915;SDS011;51427;-27.442;153.014;2023-03-12T12:41:20;5.93;;;2.97;;
64915;SDS011;51427;-27.442;153.014;2023-03-12T12:43:59;5.28;;;2.70;;
64915;SDS011;51427;-27.442;153.014;2023-03-12T12:46:33;7.03;;;2.40;;
64915;SDS011;51427;-27.442;153.014;2023-03-12T12:51:40;4.38;;;2.40;;
64915;SDS011;51427;-27.442;153.014;2023-03-12T12:54:17;8.48;;;2.65;;
64915;SDS011;51427;-27.442;153.014;2023-03-12T12:57:05;2.42;;;2.22;;
64915;SDS011;51427;-27.442;153.014;2023-03-12T12:59:42;6.35;;;3.47;;
64915;SDS011;51427;-27.442;153.014;2023-03-12T13:02:21;7.43;;;2.73;;
64915;SDS011;51427;-27.442;153.014;2023-03-12T13:04:57;5.07;;;2.80;;
64915;SDS011;51427;-27.442;153.014;2023-03-12T13:09:53;4.78;;;2.53;;
64915;SDS011;51427;-27.442;153.014;2023-03-12T13:12:30;6.70;;;3.22;;
64915;SDS011;51427;-27.442;153.014;2023-03-12T13:15:00;5.35;;;2.65;;
64915;SDS011;51427;-27.442;153.014;2023-03-12T13:20:18;3.42;;;2.50;;
64915;SDS011;51427;-27.442;153.014;2023-03-12T13:25:35;5.50;;;2.60;;
64915;SDS011;51427;-27.442;153.014;2023-03-12T13:28:30;7.20;;;2.78;;
64915;SDS011;51427;-27.442;153.014;2023-03-12T13:31:01;2.92;;;2.10;;
64915;SDS011;51427;-27.442;153.014;2023-03-12T13:33:47;2.65;;;2.45;;
64915;SDS011;51427;-27.442;153.014;2023-03-12T13:41:38;5.97;;;2.25;;
64915;SDS011;51427;-27.442;153.014;2023-03-12T13:50:13;2.92;;;2.20;;
64915;SDS011;51427;-27.442;153.014;2023-03-12T13:55:35;4.05;;;2.47;;
64915;SDS011;51427;-27.442;153.014;2023-03-12T14:03:38;4.72;;;2.92;;
64915;SDS011;51427;-27.442;153.014;2023-03-12T14:06:17;4.25;;;2.75;;
64915;SDS011;51427;-27.442;153.014;2023-03-12T14:14:11;6.70;;;2.78;;
64915;SDS011;51427;-27.442;153.014;2023-03-12T14:17:12;6.68;;;2.78;;
64915;SDS011;51427;-27.442;153.014;2023-03-12T14:20:15;8.18;;;3.05;;
64915;SDS011;51427;-27.442;153.014;2023-03-12T14:22:47;5.63;;;3.00;;
64915;SDS011;51427;-27.442;153.014;2023-03-12T14:25:42;6.50;;;2.58;;
64915;SDS011;51427;-27.442;153.014;2023-03-12T14:28:21;6.47;;;2.90;;
64915;SDS011;51427;-27.442;153.014;2023-03-12T14:33:35;4.25;;;2.63;;
64915;SDS011;51427;-27.442;153.014;2023-03-12T14:36:16;5.95;;;2.33;;
64915;SDS011;51427;-27.442;153.014;2023-03-12T14:38:47;3.83;;;2.83;;
64915;SDS011;51427;-27.442;153.014;2023-03-12T14:43:59;7.88;;;3.70;;
64915;SDS011;51427;-27.442;153.014;2023-03-12T14:46:31;5.55;;;3.53;;
64915;SDS011;51427;-27.442;153.014;2023-03-12T14:48:58;5.45;;;3.88;;
64915;SDS011;51427;-27.442;153.014;2023-03-12T14:51:27;7.97;;;4.22;;
64915;SDS011;51427;-27.442;153.014;2023-03-12T14:53:57;8.23;;;5.30;;
64915;SDS011;51427;-27.442;153.014;2023-03-12T14:56:33;13.60;;;6.95;;
64915;SDS011;51427;-27.442;153.014;2023-03-12T14:59:19;12.10;;;6.40;;
64915;SDS011;51427;-27.442;153.014;2023-03-12T15:01:47;11.52;;;7.57;;
64915;SDS011;51427;-27.442;153.014;2023-03-12T15:04:21;16.15;;;9.98;;
64915;SDS011;51427;-27.442;153.014;2023-03-12T15:06:54;17.05;;;9.98;;
64915;SDS011;51427;-27.442;153.014;2023-03-12T15:09:25;14.88;;;8.88;;
64915;SDS011;51427;-27.442;153.014;2023-03-12T15:11:58;17.05;;;8.98;;
64915;SDS011;51427;-27.442;153.014;2023-03-12T15:14:28;16.63;;;8.25;;
64915;SDS011;51427;-27.442;153.014;2023-03-12T15:17:02;14.77;;;8.45;;
64915;SDS011;51427;-27.442;153.014;2023-03-12T15:19:36;14.85;;;9.07;;
64915;SDS011;51427;-27.442;153.014;2023-03-12T15:22:26;14.77;;;8.15;;
64915;SDS011;51427;-27.442;153.014;2023-03-12T15:24:53;18.10;;;9.30;;
64915;SDS011;51427;-27.442;153.014;2023-03-12T15:29:57;13.93;;;8.60;;
64915;SDS011;51427;-27.442;153.014;2023-03-12T15:32:27;13.25;;;8.20;;
64915;SDS011;51427;-27.442;153.014;2023-03-12T15:34:57;14.05;;;7.97;;
64915;SDS011;51427;-27.442;153.014;2023-03-12T15:37:36;13.63;;;8.65;;
64915;SDS011;51427;-27.442;153.014;2023-03-12T15:40:27;14.90;;;8.43;;
64915;SDS011;51427;-27.442;153.014;2023-03-12T15:42:57;12.88;;;7.72;;
64915;SDS011;51427;-27.442;153.014;2023-03-12T15:45:36;15.52;;;10.05;;
64915;SDS011;51427;-27.442;153.014;2023-03-12T15:48:17;17.00;;;10.02;;
64915;SDS011;51427;-27.442;153.014;2023-03-12T15:51:13;22.70;;;11.48;;
64915;SDS011;51427;-27.442;153.014;2023-03-12T15:54:46;20.88;;;11.27;;
64915;SDS011;51427;-27.442;153.014;2023-03-12T15:56:52;18.45;;;9.90;;
64915;SDS011;51427;-27.442;153.014;2023-03-12T15:59:24;20.70;;;10.55;;
64915;SDS011;51427;-27.442;153.014;2023-03-12T16:01:55;23.35;;;9.98;;
64915;SDS011;51427;-27.442;153.014;2023-03-12T16:04:23;19.38;;;10.05;;
64915;SDS011;51427;-27.442;153.014;2023-03-12T16:06:53;20.88;;;10.35;;
64915;SDS011;51427;-27.442;153.014;2023-03-12T16:09:25;19.88;;;10.60;;
64915;SDS011;51427;-27.442;153.014;2023-03-12T16:11:55;21.38;;;10.18;;
64915;SDS011;51427;-27.442;153.014;2023-03-12T16:14:25;16.20;;;9.13;;
64915;SDS011;51427;-27.442;153.014;2023-03-12T16:16:59;16.67;;;8.20;;
64915;SDS011;51427;-27.442;153.014;2023-03-12T16:19:27;12.30;;;6.80;;
64915;SDS011;51427;-27.442;153.014;2023-03-12T16:22:02;12.98;;;6.75;;
64915;SDS011;51427;-27.442;153.014;2023-03-12T16:24:29;9.73;;;6.15;;
64915;SDS011;51427;-27.442;153.014;2023-03-12T16:27:00;12.02;;;6.28;;
64915;SDS011;51427;-27.442;153.014;2023-03-12T16:29:32;12.00;;;6.38;;
64915;SDS011;51427;-27.442;153.014;2023-03-12T16:32:02;12.25;;;5.82;;
64915;SDS011;51427;-27.442;153.014;2023-03-12T16:34:42;12.32;;;5.35;;
64915;SDS011;51427;-27.442;153.014;2023-03-12T16:37:10;10.88;;;5.95;;
64915;SDS011;51427;-27.442;153.014;2023-03-12T16:39:39;11.35;;;5.72;;
64915;SDS011;51427;-27.442;153.014;2023-03-12T16:42:11;9.25;;;5.07;;
64915;SDS011;51427;-27.442;153.014;2023-03-12T16:44:42;13.70;;;6.40;;
64915;SDS011;51427;-27.442;153.014;2023-03-12T16:47:12;10.65;;;6.30;;